Flight Track Log - Related Links

Times and Time Zones

All times are in EDT time to prevent confusion due to time zone crossing. See the SWA3945 flight status page for this flight to view local times or setup timezone preferences in your user account.

Time Position Orientation Groundspeed Altitude Reporting Facility
EDT Latitude Longitude Course Direction KTS MPH feet Rate Location/Type
Sat 06:16:15 PM 28.4333 -81.3000 24° Northeast 174 200 900  Level Orlando TRACON
Sat 06:17:16 PM 28.5000 -81.2667 24° Northeast 222 255 3,000 2,182 Climbing Orlando TRACON
Sat 06:18:16 PM 28.5667 -81.2667 360° North 273 314 5,300 2,912 Climbing Orlando TRACON
Sat 06:20:40 PM 28.7453 -81.3108 348° North 298 343 12,900 3,235 Climbing Jacksonville Center
Sat 06:21:40 PM 28.8417 -81.3331 349° North 328 377 16,300 3,150 Climbing Jacksonville Center
Sat 06:22:40 PM 28.9442 -81.3550 349° North 351 404 19,200 2,650 Climbing Jacksonville Center
Sat 06:23:40 PM 29.0508 -81.3772 350° North 374 430 21,600 2,500 Climbing Jacksonville Center
Sat 06:24:40 PM 29.1681 -81.3967 352° North 395 455 24,200 2,500 Climbing Jacksonville Center
Sat 06:25:40 PM 29.2933 -81.4092 355° North 416 479 26,600 2,050 Climbing Jacksonville Center
Sat 06:26:40 PM 29.4083 -81.4194 356° North 432 497 28,300 1,200 Climbing Jacksonville Center
Sat 06:27:40 PM 29.5317 -81.4342 354° North 442 509 29,000 350 Climbing Jacksonville Center
Sat 06:28:40 PM 29.6569 -81.4467 355° North 447 514 29,000  Level Jacksonville Center
Sat 06:29:40 PM 29.7803 -81.4567 356° North 447 514 29,000  Level Jacksonville Center
Sat 06:30:40 PM 29.9036 -81.4694 355° North 447 514 29,000  Level Jacksonville Center
Sat 06:31:40 PM 30.0311 -81.4819 355° North 447 514 29,000  Level Jacksonville Center
Sat 06:32:40 PM 30.1711 -81.4942 356° North 453 521 29,000  Level Jacksonville Center
Sat 06:33:40 PM 30.3008 -81.5067 355° North 453 521 29,000  Level Jacksonville Center
Sat 06:34:40 PM 30.4281 -81.5025 North 458 527 29,000  Level Jacksonville Center
Sat 06:35:40 PM 30.5572 -81.4886 North 464 534 29,000  Level Jacksonville Center
Sat 06:36:40 PM 30.6778 -81.4314 22° Northeast 458 527 29,000 500 Level Jacksonville Center
Sat 06:37:40 PM 30.7939 -81.3592 28° Northeast 458 527 30,000 950 Climbing Jacksonville Center
Sat 06:38:40 PM 30.9119 -81.2847 28° Northeast 463 533 30,900 1,450 Climbing Jacksonville Center
Sat 06:39:40 PM 31.0322 -81.2100 28° Northeast 469 540 32,900 1,050 Climbing Jacksonville Center
Sat 06:40:40 PM 31.1522 -81.1350 28° Northeast 476 548 33,000 250 Climbing Jacksonville Center
Sat 06:41:40 PM 31.2722 -81.0672 26° Northeast 470 541 33,400 1,100 Climbing Jacksonville Center
Sat 06:42:40 PM 31.3922 -80.9869 30° Northeast 476 548 35,200 1,600 Climbing Jacksonville Center
Sat 06:43:40 PM 31.5042 -80.9383 20° North 476 548 36,600 1,400 Climbing Jacksonville Center
Sat 06:44:40 PM 31.6411 -80.8794 20° North 476 548 38,000 1,200 Climbing Jacksonville Center
Sat 06:45:40 PM 31.7633 -80.8253 21° North 471 542 39,000 500 Climbing Jacksonville Center
Sat 06:46:40 PM 31.8753 -80.7764 20° North 470 541 39,000  Level Jacksonville Center
Sat 06:47:40 PM 32.0075 -80.6950 28° Northeast 470 541 39,000  Level Jacksonville Center
Sat 06:48:40 PM 32.1106 -80.6189 32° Northeast 487 560 39,000  Level Jacksonville Center
Sat 06:49:40 PM 32.2364 -80.5250 32° Northeast 487 560 39,000  Level Jacksonville Center
Sat 06:50:40 PM 32.3536 -80.4383 32° Northeast 487 560 39,000  Level Jacksonville Center
Sat 06:51:40 PM 32.4667 -80.3539 32° Northeast 487 560 39,000  Level Jacksonville Center
Sat 06:52:40 PM 32.5839 -80.2694 31° Northeast 487 560 39,000  Level Jacksonville Center
Sat 06:53:40 PM 32.7011 -80.1819 32° Northeast 492 566 39,000  Level Jacksonville Center
Sat 06:54:40 PM 32.8142 -80.0944 33° Northeast 492 566 39,000  Level Jacksonville Center
Sat 06:55:40 PM 32.9186 -80.0097 34° Northeast 492 566 39,000  Level Jacksonville Center
Sat 06:56:40 PM 33.0269 -79.9072 38° Northeast 492 566 39,000  Level Jacksonville Center
Sat 06:57:40 PM 33.1369 -79.8042 38° Northeast 492 566 39,000  Level Jacksonville Center
Sat 06:58:40 PM 33.2431 -79.7011 39° Northeast 497 572 39,000  Level Jacksonville Center
Sat 06:59:40 PM 33.3508 -79.5956 39° Northeast 497 572 39,000  Level Jacksonville Center
Sat 07:00:40 PM 33.4586 -79.4894 39° Northeast 497 572 39,000  Level Jacksonville Center
Sat 07:01:40 PM 33.5664 -79.3856 39° Northeast 497 572 39,000  Level Jacksonville Center
Sat 07:02:40 PM 33.6739 -79.2764 40° Northeast 497 572 39,000  Level Jacksonville Center
Sat 07:03:40 PM 33.7797 -79.1772 38° Northeast 496 571 39,000  Level Jacksonville Center
Sat 07:04:40 PM 33.8847 -79.0675 41° Northeast 496 571 39,000  Level Jacksonville Center
Sat 07:05:40 PM 33.9942 -78.9628 38° Northeast 496 571 39,000 -200 Level Jacksonville Center
Sat 07:06:40 PM 34.0992 -78.8475 42° Northeast 501 577 38,600 -732 Descending Jacksonville Center
Sat 07:08:24 PM 34.2119 -78.5678 64° Northeast 508 585 37,000 -585 Descending Washington Center
Sat 07:09:24 PM 34.3131 -78.4508 44° Northeast 498 573 37,000  Level Washington Center
Sat 07:10:24 PM 34.4319 -78.3542 34° Northeast 498 573 37,000  Level Washington Center
Sat 07:11:23 PM 34.5489 -78.2572 34° Northeast 503 579 37,000  Level Washington Center
Sat 07:12:24 PM 34.6658 -78.1600 34° Northeast 508 585 37,000  Level Washington Center
Sat 07:13:24 PM 34.7828 -78.0600 35° Northeast 508 585 37,000  Level Washington Center
Sat 07:14:24 PM 34.8847 -77.9694 36° Northeast 508 585 37,000  Level Washington Center
Sat 07:15:24 PM 35.0014 -77.8717 34° Northeast 508 585 37,000 -500 Level Washington Center
Sat 07:16:24 PM 35.1181 -77.7733 35° Northeast 508 585 36,000 -950 Descending Washington Center
Sat 07:17:24 PM 35.2344 -77.6747 35° Northeast 508 585 35,100 -900 Descending Washington Center
Sat 07:18:24 PM 35.3553 -77.5708 35° Northeast 513 590 34,200 -958 Descending Washington Center
Sat 07:19:23 PM 35.4736 -77.4667 36° Northeast 518 596 33,200 -600 Descending Washington Center
Sat 07:20:24 PM 35.5942 -77.3647 35° Northeast 523 602 33,000 -100 Descending Washington Center
Sat 07:21:23 PM 35.7106 -77.2600 36° Northeast 523 602 33,000  Level Washington Center
Sat 07:22:24 PM 35.8308 -77.1547 35° Northeast 523 602 33,000  Level Washington Center
Sat 07:23:24 PM 35.9575 -77.0417 36° Northeast 512 589 33,000  Level Washington Center
Sat 07:24:24 PM 36.0817 -76.9439 32° Northeast 517 595 33,000  Level Washington Center
Sat 07:25:24 PM 36.2078 -76.8533 30° Northeast 522 601 33,000  Level Washington Center
Sat 07:26:23 PM 36.3339 -76.7600 31° Northeast 522 601 33,000  Level Washington Center
Sat 07:27:23 PM 36.4622 -76.6664 30° Northeast 522 601 33,000 -350 Level Washington Center
Sat 07:28:23 PM 36.5881 -76.5775 30° Northeast 522 601 32,300 -750 Descending Washington Center
Sat 07:29:23 PM 36.6889 -76.5011 31° Northeast 522 601 31,500 -900 Descending Washington Center
Sat 07:30:23 PM 36.8272 -76.3964 31° Northeast 522 601 30,500 -1,000 Descending Washington Center
Sat 07:31:23 PM 36.9508 -76.3042 31° Northeast 516 594 29,500 -750 Descending Washington Center
Sat 07:32:23 PM 37.0892 -76.2011 31° Northeast 516 594 29,000 -250 Descending Washington Center
Sat 07:33:23 PM 37.2147 -76.1108 30° Northeast 516 594 29,000  Level Washington Center
Sat 07:34:23 PM 37.3256 -76.0306 30° Northeast 516 594 29,000  Level Washington Center
Sat 07:35:23 PM 37.4511 -75.9344 31° Northeast 516 594 29,000  Level Washington Center
Sat 07:36:23 PM 37.5744 -75.8381 32° Northeast 516 594 29,000  Level Washington Center
Sat 07:37:23 PM 37.6997 -75.7414 31° Northeast 516 594 29,000  Level Washington Center
Sat 07:38:23 PM 37.8247 -75.6469 31° Northeast 521 600 29,000 -50 Level Washington Center
Sat 07:39:23 PM 37.9500 -75.5550 30° Northeast 521 600 28,900 -1,100 Descending Washington Center
Sat 07:40:23 PM 38.0708 -75.4572 32° Northeast 521 600 26,800 -2,250 Descending Washington Center
Sat 07:41:23 PM 38.1958 -75.3803 26° Northeast 504 580 24,400 -2,500 Descending Washington Center
Sat 07:42:23 PM 38.3228 -75.3006 26° Northeast 479 551 21,800 -2,450 Descending Washington Center
Sat 07:43:23 PM 38.4333 -75.2286 27° Northeast 453 521 19,500 -2,250 Descending Washington Center
Sat 07:44:23 PM 38.5414 -75.1589 27° Northeast 442 509 17,300 -2,250 Descending Washington Center
Sat 07:45:23 PM 38.6475 -75.0947 25° Northeast 426 490 15,000 -1,150 Descending Washington Center
Sat 07:46:23 PM 38.7494 -75.0753 North 386 444 15,000  Level Washington Center
Sat 07:47:23 PM 38.8475 -75.0639 North 368 423 15,000  Level Washington Center
Sat 07:48:23 PM 38.9475 -75.0472 North 363 418 15,000 -450 Level Washington Center
Sat 07:49:23 PM 39.0453 -75.0331 North 363 418 14,100 -1,450 Descending Washington Center
Sat 07:50:23 PM 39.1433 -75.0269 North 355 409 12,100 -1,472 Descending Washington Center
Sat 07:52:06 PM 39.2981 -75.0006 North 290 334 10,100 -1,073 Descending FAA TRACON SMA TRACON (SMA)
Sat 07:52:26 PM 39.3217 -74.9975 North 278 320 9,900 -1,200 Descending FAA TRACON SMA TRACON (SMA)
Sat 07:52:46 PM 39.3489 -74.9928 North 271 312 9,300 -1,350 Descending FAA TRACON SMA TRACON (SMA)
Sat 07:53:06 PM 39.3733 -74.9903 North 270 311 9,000 -450 Descending FAA TRACON SMA TRACON (SMA)
Sat 07:53:26 PM 39.3928 -74.9869 North 267 307 9,000  Level FAA TRACON SMA TRACON (SMA)
Sat 07:53:47 PM 39.4217 -74.9831 North 265 305 9,000  Level FAA TRACON SMA TRACON (SMA)
Sat 07:54:06 PM 39.4458 -74.9803 North 262 302 9,000  Level FAA TRACON SMA TRACON (SMA)
Sat 07:54:26 PM 39.4686 -74.9769 North 264 304 9,000 -600 Level FAA TRACON SMA TRACON (SMA)
Sat 07:54:46 PM 39.4967 -74.9708 10° North 266 306 8,600 -1,350 Descending FAA TRACON SMA TRACON (SMA)
Sat 07:55:06 PM 39.5197 -74.9661 North 269 310 8,100 -1,500 Descending FAA TRACON SMA TRACON (SMA)
Sat 07:55:26 PM 39.5464 -74.9608 North 267 307 7,600 -1,395 Descending FAA TRACON SMA TRACON (SMA)
Sat 07:55:49 PM 39.5697 -74.9572 North 265 305 7,100 -1,395 Descending FAA TRACON SMA TRACON (SMA)
Sat 07:56:09 PM 39.5981 -74.9533 North 264 304 6,600 -1,459 Descending FAA TRACON SMA TRACON (SMA)
Sat 07:56:26 PM 39.6186 -74.9517 North 261 300 6,200 -973 Descending FAA TRACON SMA TRACON (SMA)
Sat 07:56:46 PM 39.6422 -74.9500 North 258 297 6,000 -300 Descending FAA TRACON SMA TRACON (SMA)
Sat 07:57:06 PM 39.6642 -74.9483 North 257 296 6,000 -150 Level FAA TRACON SMA TRACON (SMA)
Sat 07:57:26 PM 39.6908 -74.9461 North 255 293 5,900 -1,050 Descending FAA TRACON SMA TRACON (SMA)
Sat 07:57:46 PM 39.7128 -74.9444 North 256 295 5,300 -1,610 Descending FAA TRACON SMA TRACON (SMA)
Sat 07:58:07 PM 39.7358 -74.9431 North 261 300 4,800 -1,350 Descending FAA TRACON SMA TRACON (SMA)
Sat 07:58:26 PM 39.7583 -74.9419 North 263 303 4,400 -1,200 Descending FAA TRACON SMA TRACON (SMA)
Sat 07:58:47 PM 39.7858 -74.9456 354° North 255 293 4,000 -750 Descending FAA TRACON SMA TRACON (SMA)
Sat 07:59:06 PM 39.8006 -74.9633 317° Northwest 245 282 3,900 -462 Descending FAA TRACON SMA TRACON (SMA)
Sat 07:59:26 PM 39.8142 -74.9822 313° West 229 264 3,700 -600 Descending FAA TRACON SMA TRACON (SMA)
Sat 07:59:46 PM 39.8317 -75.0033 317° Northwest 227 261 3,500 -600 Descending FAA TRACON SMA TRACON (SMA)
Sat 08:00:06 PM 39.8444 -75.0203 314° West 214 246 3,300 -600 Descending FAA TRACON SMA TRACON (SMA)
Sat 08:00:26 PM 39.8597 -75.0389 317° Northwest 199 229 3,100 -900 Descending FAA TRACON SMA TRACON (SMA)
Sat 08:00:46 PM 39.8706 -75.0533 314° West 181 208 2,700 -1,050 Descending FAA TRACON SMA TRACON (SMA)
Sat 08:01:06 PM 39.8808 -75.0672 314° West 177 204 2,400 -1,050 Descending FAA TRACON SMA TRACON (SMA)
Sat 08:01:26 PM 39.8883 -75.0878 295° West 167 192 2,000 -900 Descending FAA TRACON SMA TRACON (SMA)
Sat 08:01:46 PM 39.8922 -75.1075 284° West 164 189 1,800 -750 Descending FAA TRACON SMA TRACON (SMA)
Sat 08:02:06 PM 39.8931 -75.1253 274° West 169 194 1,500 -900 Descending FAA TRACON SMA TRACON (SMA)
Sat 08:02:26 PM 39.8914 -75.1439 263° West 139 160 1,200 -750 Descending FAA TRACON SMA TRACON (SMA)
Sat 08:02:46 PM 39.8883 -75.1597 256° West 138 159 1,000 -600 Descending FAA TRACON SMA TRACON (SMA)

Login

Don't have an account? Register now (free) for customized features, flight alerts, and more!